createdAt,value
2024-02-16T00:02:39.052Z,0.00
2024-02-16T00:07:38.968Z,0.00
2024-02-16T00:12:38.908Z,0.00
2024-02-16T00:17:38.957Z,0.00
2024-02-16T00:22:38.806Z,0.00
2024-02-16T00:27:38.796Z,0.00
2024-02-16T00:32:38.676Z,0.00
2024-02-16T00:37:38.585Z,0.00
2024-02-16T00:42:38.669Z,0.00
2024-02-16T00:47:38.479Z,0.00
2024-02-16T00:52:38.380Z,0.00
2024-02-16T00:57:38.325Z,0.00
2024-02-16T01:02:38.266Z,0.00
2024-02-16T01:07:38.333Z,0.00
2024-02-16T01:12:38.195Z,0.00
2024-02-16T01:17:38.058Z,0.00
2024-02-16T01:22:38.057Z,0.00
2024-02-16T01:27:38.114Z,0.00
2024-02-16T01:32:37.896Z,0.00
2024-02-16T01:37:37.792Z,0.00
2024-02-16T01:42:37.742Z,0.00
2024-02-16T01:47:37.692Z,0.00
2024-02-16T01:52:37.648Z,0.00
2024-02-16T01:57:37.656Z,0.00
2024-02-16T02:02:37.463Z,0.00
2024-02-16T02:07:37.541Z,0.00
2024-02-16T02:12:37.508Z,0.00
2024-02-16T02:17:37.495Z,0.00
2024-02-16T02:22:37.188Z,0.00
2024-02-16T02:27:37.176Z,0.00
2024-02-16T02:32:37.175Z,0.00
2024-02-16T02:37:37.014Z,0.00
2024-02-16T02:42:36.971Z,0.00
2024-02-16T02:47:36.896Z,0.00
2024-02-16T02:52:36.967Z,0.00
2024-02-16T02:57:36.814Z,0.00
2024-02-16T03:02:36.705Z,0.00
2024-02-16T03:07:36.676Z,0.00
2024-02-16T03:12:36.593Z,0.00
2024-02-16T03:17:36.513Z,0.00
2024-02-16T03:22:36.421Z,0.00
2024-02-16T03:27:36.643Z,0.00
2024-02-16T03:32:36.498Z,0.00
2024-02-16T03:37:36.230Z,0.00
2024-02-16T03:42:36.212Z,0.00
2024-02-16T03:47:36.133Z,0.00
2024-02-16T03:52:36.035Z,0.00
2024-02-16T03:57:35.990Z,0.00
2024-02-16T04:02:35.917Z,0.00
2024-02-16T04:07:35.916Z,0.00
2024-02-16T04:12:35.901Z,0.00
2024-02-16T04:17:35.667Z,0.00
2024-02-16T04:22:35.638Z,0.00
2024-02-16T04:27:35.625Z,0.00
2024-02-16T04:32:35.533Z,0.00
2024-02-16T04:37:35.465Z,0.00
2024-02-16T04:42:35.433Z,0.00
2024-02-16T04:47:35.267Z,0.00
2024-02-16T04:52:35.238Z,0.00
2024-02-16T04:57:35.414Z,0.00
2024-02-16T05:02:35.094Z,0.00
2024-02-16T05:07:35.045Z,0.00
2024-02-16T05:12:35.066Z,0.00
2024-02-16T05:17:34.934Z,0.00
2024-02-16T05:22:34.845Z,0.00
2024-02-16T05:27:34.785Z,0.00
2024-02-16T05:32:34.738Z,0.00
2024-02-16T05:37:34.658Z,0.00
2024-02-16T05:42:34.690Z,0.00
2024-02-16T05:47:34.521Z,0.00
2024-02-16T05:52:34.436Z,0.00
2024-02-16T05:57:34.462Z,0.00
2024-02-16T06:02:34.336Z,0.00
2024-02-16T06:07:34.307Z,0.00
2024-02-16T06:12:34.248Z,0.00
2024-02-16T06:17:34.234Z,0.00
2024-02-16T06:22:34.090Z,4.00
2024-02-16T06:27:34.229Z,4.00
2024-02-16T06:32:33.995Z,12.00
2024-02-16T06:37:33.835Z,20.00
2024-02-16T06:42:33.775Z,28.00
2024-02-16T06:47:33.762Z,40.00
2024-02-16T06:52:33.653Z,60.00
2024-02-16T06:57:33.644Z,92.00
2024-02-16T07:02:33.553Z,120.00
2024-02-16T07:07:33.445Z,136.00
2024-02-16T07:12:33.400Z,164.00
2024-02-16T07:17:33.312Z,192.00
2024-02-16T07:22:33.227Z,228.00
2024-02-16T07:27:33.267Z,324.00
2024-02-16T07:32:33.201Z,484.00
2024-02-16T07:37:33.041Z,560.00
2024-02-16T07:42:33.080Z,496.00
2024-02-16T07:47:33.043Z,468.00
2024-02-16T07:52:32.856Z,540.00
2024-02-16T07:57:32.792Z,636.00
2024-02-16T08:02:32.753Z,700.00
2024-02-16T08:07:32.850Z,744.00
2024-02-16T08:12:32.641Z,748.00
2024-02-16T08:17:32.620Z,704.00
2024-02-16T08:22:32.480Z,676.00
2024-02-16T08:27:32.396Z,652.00
2024-02-16T08:32:32.411Z,716.00
2024-02-16T08:37:32.351Z,888.00
2024-02-16T08:42:32.236Z,1152.00
2024-02-16T08:47:32.154Z,1456.00
2024-02-16T08:52:32.047Z,1792.00
2024-02-16T08:57:32.102Z,1680.00
2024-02-16T09:02:31.948Z,1864.00
2024-02-16T09:07:31.870Z,2620.00
2024-02-16T09:12:31.887Z,3232.00
2024-02-16T09:17:31.752Z,3012.00
2024-02-16T09:27:31.644Z,2144.00
2024-02-16T09:32:31.547Z,2172.00
2024-02-16T09:37:31.458Z,2120.00
2024-02-16T09:42:31.515Z,2436.00
2024-02-16T09:47:31.389Z,3220.00
2024-02-16T09:52:31.300Z,3412.00
2024-02-16T09:57:31.324Z,3552.00
2024-02-16T10:02:31.125Z,3084.00
2024-02-16T10:07:31.206Z,3116.00
2024-02-16T10:12:31.083Z,2520.00
2024-02-16T10:17:30.987Z,2480.00
2024-02-16T10:22:30.894Z,2192.00
2024-02-16T10:27:30.847Z,2216.00
2024-02-16T10:32:30.784Z,2236.00
2024-02-16T10:37:30.658Z,2192.00
2024-02-16T10:42:30.644Z,1968.00
2024-02-16T10:47:30.615Z,1852.00
2024-02-16T10:52:30.498Z,1772.00
2024-02-16T10:57:30.432Z,1592.00
2024-02-16T11:02:30.342Z,1448.00
2024-02-16T11:07:30.560Z,1452.00
2024-02-16T11:12:30.229Z,1580.00
2024-02-16T11:17:30.175Z,1608.00
2024-02-16T11:22:30.090Z,1684.00
2024-02-16T11:27:30.042Z,1528.00
2024-02-16T11:32:29.958Z,1288.00
2024-02-16T11:37:29.890Z,1168.00
2024-02-16T11:42:29.909Z,1124.00
2024-02-16T11:47:30.816Z,1184.00
2024-02-16T11:52:29.721Z,1696.00
2024-02-16T11:57:29.678Z,2104.00
2024-02-16T12:02:29.624Z,2144.00
2024-02-16T12:07:29.616Z,1876.00
2024-02-16T12:12:29.647Z,1896.00
2024-02-16T12:17:29.458Z,2052.00
2024-02-16T12:22:29.318Z,1664.00
2024-02-16T12:27:29.245Z,1504.00
2024-02-16T12:32:29.196Z,1464.00
2024-02-16T12:37:29.113Z,1356.00
2024-02-16T12:42:29.075Z,1176.00
2024-02-16T12:47:29.951Z,1232.00
2024-02-16T12:52:28.898Z,1036.00
2024-02-16T12:57:28.977Z,876.00
2024-02-16T13:02:28.804Z,916.00
2024-02-16T13:07:28.844Z,836.00
2024-02-16T13:12:28.714Z,652.00
2024-02-16T13:17:28.682Z,560.00
2024-02-16T13:22:28.522Z,628.00
2024-02-16T13:27:28.500Z,732.00
2024-02-16T13:32:28.391Z,904.00
2024-02-16T13:37:28.302Z,908.00
2024-02-16T13:42:28.311Z,756.00
2024-02-16T13:47:28.173Z,692.00
2024-02-16T13:52:28.091Z,572.00
2024-02-16T13:57:28.078Z,452.00
2024-02-16T14:02:27.976Z,368.00
2024-02-16T14:07:27.979Z,272.00
2024-02-16T14:12:27.843Z,264.00
2024-02-16T14:17:27.740Z,260.00
2024-02-16T14:22:27.655Z,312.00
2024-02-16T14:27:27.659Z,272.00
2024-02-16T14:32:27.666Z,204.00
2024-02-16T14:37:27.463Z,220.00
2024-02-16T14:42:27.406Z,264.00
2024-02-16T14:47:27.344Z,272.00
2024-02-16T14:52:27.269Z,304.00
2024-02-16T14:57:27.251Z,244.00
2024-02-16T15:02:27.156Z,236.00
2024-02-16T15:07:27.079Z,248.00
2024-02-16T15:12:27.032Z,240.00
2024-02-16T15:17:26.979Z,200.00
2024-02-16T15:22:30.907Z,236.00
2024-02-16T15:27:27.875Z,168.00
2024-02-16T15:32:26.823Z,172.00
2024-02-16T15:37:26.731Z,144.00
2024-02-16T15:42:26.636Z,132.00
2024-02-16T15:47:26.645Z,104.00
2024-02-16T15:52:26.510Z,100.00
2024-02-16T15:57:26.506Z,76.00
2024-02-16T16:02:26.345Z,68.00
2024-02-16T16:07:26.350Z,48.00
2024-02-16T16:12:26.281Z,44.00
2024-02-16T16:17:26.194Z,28.00
2024-02-16T16:22:26.103Z,28.00
2024-02-16T16:27:26.099Z,20.00
2024-02-16T16:32:25.932Z,12.00
2024-02-16T16:37:25.907Z,8.00
2024-02-16T16:42:25.864Z,8.00
2024-02-16T16:47:25.818Z,8.00
2024-02-16T16:52:25.702Z,4.00
2024-02-16T17:02:25.615Z,0.00
2024-02-16T17:07:25.533Z,0.00
2024-02-16T17:12:25.470Z,0.00
2024-02-16T17:17:25.417Z,0.00
2024-02-16T17:22:25.316Z,0.00
2024-02-16T17:27:25.263Z,0.00
2024-02-16T17:32:25.200Z,0.00
2024-02-16T17:37:25.136Z,0.00
2024-02-16T17:42:25.140Z,0.00
2024-02-16T17:47:24.962Z,0.00
2024-02-16T17:52:24.928Z,0.00
2024-02-16T17:57:24.911Z,0.00
2024-02-16T18:02:34.065Z,0.00
2024-02-16T18:07:25.789Z,0.00
2024-02-16T18:12:24.729Z,0.00
2024-02-16T18:17:24.568Z,0.00
2024-02-16T18:22:24.522Z,0.00
2024-02-16T18:27:24.552Z,0.00
2024-02-16T18:32:24.391Z,0.00
2024-02-16T18:37:24.280Z,0.00
2024-02-16T18:42:24.262Z,0.00
2024-02-16T18:47:24.242Z,0.00
2024-02-16T18:52:24.130Z,0.00
2024-02-16T18:57:24.064Z,0.00
2024-02-16T19:02:23.974Z,0.00
2024-02-16T19:07:23.965Z,0.00
2024-02-16T19:12:23.904Z,0.00
2024-02-16T19:17:23.802Z,0.00
2024-02-16T19:22:23.738Z,0.00
2024-02-16T19:27:23.670Z,0.00
2024-02-16T19:32:23.620Z,0.00
2024-02-16T19:37:23.528Z,0.00
2024-02-16T19:42:23.520Z,0.00
2024-02-16T19:47:23.368Z,0.00
2024-02-16T19:52:23.306Z,0.00
2024-02-16T19:57:23.249Z,0.00
2024-02-16T20:02:23.192Z,0.00
2024-02-16T20:07:23.178Z,0.00
2024-02-16T20:12:23.126Z,0.00
2024-02-16T20:17:22.980Z,0.00
2024-02-16T20:22:22.928Z,0.00
2024-02-16T20:27:22.880Z,0.00
2024-02-16T20:32:22.788Z,0.00
2024-02-16T20:37:22.698Z,0.00
2024-02-16T20:42:22.685Z,0.00
2024-02-16T20:47:22.580Z,0.00
2024-02-16T20:52:22.524Z,0.00
2024-02-16T20:57:22.659Z,0.00
2024-02-16T21:02:22.398Z,0.00
2024-02-16T21:07:22.420Z,0.00
2024-02-16T21:12:22.318Z,0.00
2024-02-16T21:17:22.177Z,0.00
2024-02-16T21:22:22.122Z,0.00
2024-02-16T21:27:22.123Z,0.00
2024-02-16T21:32:22.007Z,0.00
2024-02-16T21:37:21.944Z,0.00
2024-02-16T21:42:21.906Z,0.00
2024-02-16T21:47:21.752Z,0.00
2024-02-16T21:52:21.714Z,0.00
2024-02-16T21:57:21.691Z,0.00
2024-02-16T22:02:21.568Z,0.00
2024-02-16T22:07:21.623Z,0.00
2024-02-16T22:12:21.545Z,0.00
2024-02-16T22:17:21.369Z,0.00
2024-02-16T22:22:21.361Z,0.00
2024-02-16T22:27:21.311Z,0.00
2024-02-16T22:32:21.191Z,0.00
2024-02-16T22:37:21.119Z,0.00
2024-02-16T22:42:21.103Z,0.00
2024-02-16T22:47:21.004Z,0.00
2024-02-16T22:52:20.938Z,0.00
2024-02-16T22:57:20.880Z,0.00
2024-02-16T23:02:20.785Z,0.00
2024-02-16T23:07:23.416Z,0.00
2024-02-16T23:12:20.687Z,0.00
2024-02-16T23:17:20.593Z,0.00
2024-02-16T23:22:20.525Z,0.00
2024-02-16T23:27:20.506Z,0.00
2024-02-16T23:32:20.352Z,0.00
2024-02-16T23:37:20.344Z,0.00
2024-02-16T23:42:20.356Z,0.00
2024-02-16T23:47:20.202Z,0.00
2024-02-16T23:52:20.160Z,0.00
2024-02-16T23:57:20.086Z,0.00
